createdAt,value
2022-11-22T00:02:10.030Z,9.74
2022-11-22T00:04:37.568Z,9.73
2022-11-22T00:07:05.058Z,9.74
2022-11-22T00:09:32.538Z,9.74
2022-11-22T00:12:01.317Z,9.74
2022-11-22T00:14:28.943Z,9.74
2022-11-22T00:16:56.412Z,9.74
2022-11-22T00:19:23.873Z,9.74
2022-11-22T00:21:51.304Z,9.75
2022-11-22T00:24:18.837Z,9.75
2022-11-22T00:26:46.299Z,9.76
2022-11-22T00:29:15.977Z,9.75
2022-11-22T00:31:43.433Z,9.76
2022-11-22T00:34:10.867Z,9.76
2022-11-22T00:36:38.334Z,9.75
2022-11-22T00:41:24.679Z,9.74
2022-11-22T00:43:52.112Z,9.73
2022-11-22T00:46:20.877Z,9.75
2022-11-22T00:48:48.317Z,9.74
2022-11-22T00:51:15.740Z,9.75
2022-11-22T00:53:43.184Z,9.74
2022-11-22T00:56:10.628Z,9.74
2022-11-22T00:58:38.047Z,9.74
2022-11-22T01:01:05.550Z,9.75
2022-11-22T01:03:34.319Z,9.76
2022-11-22T01:06:01.801Z,9.75
2022-11-22T01:08:29.215Z,9.75
2022-11-22T01:10:57.388Z,9.77
2022-11-22T01:13:24.941Z,9.77
2022-11-22T01:15:52.425Z,9.76
2022-11-22T01:18:19.869Z,9.76
2022-11-22T01:20:48.644Z,9.77
2022-11-22T01:23:16.059Z,9.19
2022-11-22T01:25:43.985Z,9.78
2022-11-22T01:28:11.406Z,9.77
2022-11-22T01:30:39.008Z,9.77
2022-11-22T01:33:06.498Z,9.78
2022-11-22T01:35:33.980Z,9.78
2022-11-22T01:38:02.807Z,9.79
2022-11-22T01:40:30.295Z,9.79
2022-11-22T01:42:59.387Z,9.78
2022-11-22T01:45:39.080Z,9.79
2022-11-22T01:48:07.843Z,9.78
2022-11-22T01:50:37.261Z,9.79
2022-11-22T01:53:07.976Z,9.78
2022-11-22T01:55:35.420Z,9.74
2022-11-22T01:58:02.868Z,9.79
2022-11-22T02:00:30.328Z,9.78
2022-11-22T02:02:59.499Z,9.78
2022-11-22T02:05:28.091Z,9.56
2022-11-22T02:07:57.877Z,9.78
2022-11-22T02:10:27.929Z,9.79
2022-11-22T02:12:55.601Z,9.64
2022-11-22T02:15:23.054Z,9.72
2022-11-22T02:17:50.507Z,9.76
2022-11-22T02:20:19.155Z,9.80
2022-11-22T02:22:48.700Z,9.81
2022-11-22T02:25:17.240Z,9.79
2022-11-22T02:27:46.048Z,9.66
2022-11-22T02:30:14.330Z,9.58
2022-11-22T02:32:41.793Z,9.80
2022-11-22T02:35:17.562Z,9.64
2022-11-22T02:37:45.021Z,9.59
2022-11-22T02:40:14.542Z,9.77
2022-11-22T02:42:42.994Z,9.81
2022-11-22T02:45:12.008Z,9.82
2022-11-22T02:47:39.458Z,9.81
2022-11-22T02:50:07.676Z,9.85
2022-11-22T02:52:35.107Z,9.83
2022-11-22T02:55:02.773Z,9.83
2022-11-22T02:57:30.270Z,9.83
2022-11-22T02:59:57.721Z,9.83
2022-11-22T03:02:26.534Z,9.83
2022-11-22T03:04:53.989Z,9.82
2022-11-22T03:07:21.491Z,9.82
2022-11-22T03:09:48.937Z,9.82
2022-11-22T03:12:16.391Z,9.83
2022-11-22T03:14:43.845Z,9.83
2022-11-22T03:17:11.295Z,9.83
2022-11-22T03:19:40.092Z,9.79
2022-11-22T03:22:07.538Z,9.85
2022-11-22T03:24:34.968Z,9.84
2022-11-22T03:27:02.447Z,9.85
2022-11-22T03:29:30.107Z,9.86
2022-11-22T03:31:57.766Z,9.85
2022-11-22T03:34:25.252Z,9.86
2022-11-22T03:36:54.043Z,9.82
2022-11-22T03:39:21.507Z,9.85
2022-11-22T03:41:48.971Z,9.86
2022-11-22T03:44:16.425Z,9.87
2022-11-22T03:46:43.879Z,9.87
2022-11-22T03:49:11.793Z,9.88
2022-11-22T03:51:39.274Z,9.88
2022-11-22T03:54:08.059Z,9.88
2022-11-22T03:56:35.509Z,9.88
2022-11-22T03:59:02.931Z,9.88
2022-11-22T04:01:30.455Z,9.89
2022-11-22T04:03:57.992Z,9.88
2022-11-22T04:06:25.445Z,9.87
2022-11-22T04:08:52.930Z,9.90
2022-11-22T04:11:21.760Z,9.89
2022-11-22T04:14:06.760Z,9.89
2022-11-22T04:16:34.223Z,9.89
2022-11-22T04:19:01.705Z,9.87
2022-11-22T04:21:34.237Z,9.90
2022-11-22T04:24:19.904Z,9.89
2022-11-22T04:26:48.985Z,9.90
2022-11-22T04:29:16.416Z,9.91
2022-11-22T04:32:03.585Z,9.91
2022-11-22T04:34:31.008Z,9.90
2022-11-22T04:36:58.484Z,9.81
2022-11-22T04:39:25.919Z,9.91
2022-11-22T04:42:16.131Z,9.93
2022-11-22T04:44:42.448Z,9.91
2022-11-22T04:47:10.091Z,9.90
2022-11-22T04:49:37.564Z,9.67
2022-11-22T04:52:23.163Z,9.24
2022-11-22T04:54:50.591Z,9.91
2022-11-22T04:57:19.353Z,9.91
2022-11-22T04:59:46.801Z,9.91
2022-11-22T05:02:14.245Z,9.91
2022-11-22T05:04:44.081Z,9.91
2022-11-22T05:07:15.184Z,9.91
2022-11-22T05:09:42.656Z,9.93
2022-11-22T05:12:10.133Z,9.93
2022-11-22T05:14:38.866Z,9.96
2022-11-22T05:17:07.213Z,9.95
2022-11-22T05:19:36.809Z,9.96
2022-11-22T05:22:04.371Z,9.98
2022-11-22T05:24:30.857Z,9.99
2022-11-22T05:26:58.326Z,10.00
2022-11-22T05:29:25.801Z,10.01
2022-11-22T05:31:54.586Z,9.99
2022-11-22T05:34:22.028Z,10.03
2022-11-22T05:36:49.453Z,10.05
2022-11-22T05:39:16.880Z,10.04
2022-11-22T05:41:55.825Z,10.05
2022-11-22T05:44:23.793Z,10.06
2022-11-22T05:46:51.290Z,10.07
2022-11-22T05:49:20.083Z,10.08
2022-11-22T05:51:47.549Z,10.08
2022-11-22T05:54:15.005Z,10.10
2022-11-22T05:56:42.536Z,10.11
2022-11-22T05:59:10.023Z,10.11
2022-11-22T06:01:37.493Z,10.14
2022-11-22T06:04:05.048Z,10.17
2022-11-22T06:06:33.806Z,10.17
2022-11-22T06:09:01.296Z,10.20
2022-11-22T06:11:28.742Z,9.95
2022-11-22T06:13:57.058Z,10.00
2022-11-22T06:16:24.801Z,10.02
2022-11-22T06:18:52.344Z,10.23
2022-11-22T06:21:23.112Z,10.25
2022-11-22T06:23:51.923Z,10.26
2022-11-22T06:26:20.317Z,10.01
2022-11-22T06:28:48.347Z,10.24
2022-11-22T06:31:16.659Z,10.13
2022-11-22T06:33:44.259Z,10.27
2022-11-22T06:36:12.533Z,10.28
2022-11-22T06:38:40.175Z,10.53
2022-11-22T06:41:09.691Z,10.82
2022-11-22T06:43:37.958Z,11.00
2022-11-22T06:46:06.925Z,11.44
2022-11-22T06:48:35.322Z,11.43
2022-11-22T06:51:03.050Z,11.83
2022-11-22T06:53:46.899Z,11.78
2022-11-22T06:56:17.802Z,12.12
2022-11-22T06:58:45.405Z,12.23
2022-11-22T07:01:13.811Z,12.35
2022-11-22T07:03:41.512Z,12.29
2022-11-22T07:06:09.876Z,12.53
2022-11-22T07:08:37.499Z,12.65
2022-11-22T07:11:05.127Z,12.71
2022-11-22T07:13:33.921Z,12.77
2022-11-22T07:16:02.080Z,12.79
2022-11-22T07:18:29.595Z,12.62
2022-11-22T07:21:01.388Z,12.92
2022-11-22T07:23:28.938Z,12.96
2022-11-22T07:25:56.379Z,12.80
2022-11-22T07:28:24.098Z,12.80
2022-11-22T07:30:52.856Z,13.13
2022-11-22T07:33:20.291Z,13.17
2022-11-22T07:35:47.730Z,13.16
2022-11-22T07:38:15.171Z,13.21
2022-11-22T07:40:42.962Z,13.23
2022-11-22T07:43:10.453Z,13.27
2022-11-22T07:45:37.906Z,13.34
2022-11-22T07:48:07.272Z,13.36
2022-11-22T07:50:34.710Z,13.39
2022-11-22T07:53:02.160Z,13.19
2022-11-22T07:55:31.270Z,12.99
2022-11-22T07:57:59.474Z,12.65
2022-11-22T08:00:27.461Z,12.68
2022-11-22T08:02:54.938Z,12.53
2022-11-22T08:05:23.689Z,12.42
2022-11-22T08:07:51.874Z,12.39
2022-11-22T08:10:19.408Z,12.42
2022-11-22T08:12:46.871Z,12.38
2022-11-22T08:15:15.373Z,12.31
2022-11-22T08:17:42.896Z,12.29
2022-11-22T08:20:10.707Z,12.28
2022-11-22T08:22:40.673Z,12.30
2022-11-22T08:25:12.434Z,12.35
2022-11-22T08:27:41.070Z,12.44
2022-11-22T08:30:08.988Z,12.41
2022-11-22T08:32:36.420Z,12.41
2022-11-22T08:35:03.878Z,12.39
2022-11-22T08:37:31.329Z,12.39
2022-11-22T08:40:00.144Z,12.41
2022-11-22T08:42:27.602Z,12.42
2022-11-22T08:44:55.445Z,12.42
2022-11-22T08:47:23.033Z,12.16
2022-11-22T08:49:50.587Z,12.39
2022-11-22T08:52:18.018Z,12.41
2022-11-22T08:54:45.439Z,12.42
2022-11-22T08:57:14.200Z,12.45
2022-11-22T08:59:41.691Z,12.44
2022-11-22T09:02:10.032Z,12.46
2022-11-22T09:04:37.718Z,12.43
2022-11-22T09:09:52.689Z,12.45
2022-11-22T09:12:21.469Z,12.46
2022-11-22T09:14:48.927Z,12.44
2022-11-22T09:17:18.310Z,12.46
2022-11-22T09:19:45.890Z,12.51
2022-11-22T09:22:13.328Z,12.51
2022-11-22T09:24:40.794Z,12.55
2022-11-22T09:27:08.249Z,12.48
2022-11-22T09:29:37.049Z,12.46
2022-11-22T09:32:04.559Z,12.41
2022-11-22T09:34:32.041Z,12.34
2022-11-22T09:36:59.477Z,12.29
2022-11-22T09:39:26.961Z,12.21
2022-11-22T09:42:12.397Z,12.20
2022-11-22T09:44:48.230Z,12.17
2022-11-22T09:47:19.954Z,12.18
2022-11-22T09:49:51.706Z,12.16
2022-11-22T09:52:21.295Z,12.09
2022-11-22T09:54:50.404Z,12.05
2022-11-22T09:57:20.473Z,12.13
2022-11-22T09:59:51.421Z,11.94
2022-11-22T10:02:21.309Z,12.16
2022-11-22T10:04:51.913Z,12.14
2022-11-22T10:07:20.449Z,12.14
2022-11-22T10:09:48.985Z,12.16
2022-11-22T10:12:17.968Z,12.19
2022-11-22T10:14:46.763Z,11.98
2022-11-22T10:17:24.786Z,12.00
2022-11-22T10:19:53.583Z,12.23
2022-11-22T10:22:21.093Z,12.24
2022-11-22T10:24:48.574Z,12.25
2022-11-22T10:27:16.085Z,12.30
2022-11-22T10:29:46.887Z,12.34
2022-11-22T10:32:16.984Z,12.38
2022-11-22T10:34:49.243Z,12.46
2022-11-22T10:37:19.983Z,12.35
2022-11-22T10:40:02.422Z,12.46
2022-11-22T10:42:41.802Z,12.21
2022-11-22T10:45:13.012Z,12.42
2022-11-22T10:47:46.452Z,12.46
2022-11-22T10:50:17.867Z,12.51
2022-11-22T10:52:49.907Z,12.52
2022-11-22T10:55:22.871Z,12.52
2022-11-22T10:57:55.009Z,12.45
2022-11-22T11:00:24.656Z,12.57
2022-11-22T11:03:14.580Z,12.61
2022-11-22T11:06:15.382Z,12.69
2022-11-22T11:09:02.716Z,12.63
2022-11-22T11:11:24.096Z,12.75
2022-11-22T11:13:53.155Z,12.60
2022-11-22T11:16:22.380Z,12.72
2022-11-22T11:18:51.413Z,12.67
2022-11-22T11:21:20.210Z,12.92
2022-11-22T11:23:48.323Z,12.96
2022-11-22T11:26:24.188Z,12.89
2022-11-22T11:28:51.969Z,13.01
2022-11-22T11:31:21.602Z,12.99
2022-11-22T11:33:49.048Z,12.98
2022-11-22T11:36:18.186Z,12.98
2022-11-22T11:38:53.524Z,13.01
2022-11-22T11:41:29.219Z,12.99
2022-11-22T11:43:57.279Z,12.96
2022-11-22T11:46:25.273Z,12.98
2022-11-22T11:48:53.112Z,12.98
2022-11-22T11:51:26.089Z,12.96
2022-11-22T11:54:14.370Z,13.03
2022-11-22T11:56:47.161Z,13.02
2022-11-22T11:59:16.404Z,12.86
2022-11-22T12:01:49.197Z,13.04
2022-11-22T12:04:20.822Z,13.07
2022-11-22T12:06:56.595Z,12.78
2022-11-22T12:09:36.714Z,12.83
2022-11-22T12:12:12.267Z,12.98
2022-11-22T12:15:09.024Z,12.94
2022-11-22T12:17:28.789Z,12.92
2022-11-22T12:19:58.119Z,12.92
2022-11-22T12:22:48.993Z,12.91
2022-11-22T12:25:32.679Z,12.42
2022-11-22T12:28:16.707Z,12.85
2022-11-22T12:30:44.162Z,12.76
2022-11-22T12:33:14.762Z,12.49
2022-11-22T12:35:43.967Z,12.68
2022-11-22T12:38:13.289Z,12.66
2022-11-22T12:40:42.818Z,12.62
2022-11-22T12:43:13.388Z,12.19
2022-11-22T12:45:42.800Z,12.59
2022-11-22T12:48:14.688Z,12.38
2022-11-22T12:50:42.764Z,12.55
2022-11-22T12:53:12.304Z,12.59
2022-11-22T12:55:45.484Z,12.51
2022-11-22T12:58:18.458Z,12.48
2022-11-22T13:00:54.113Z,12.47
2022-11-22T13:03:23.400Z,12.45
2022-11-22T13:05:52.823Z,12.45
2022-11-22T13:08:24.924Z,12.16
2022-11-22T13:10:55.517Z,12.46
2022-11-22T13:13:25.454Z,12.10
2022-11-22T13:15:53.372Z,12.46
2022-11-22T13:18:20.805Z,12.45
2022-11-22T13:20:52.055Z,12.45
2022-11-22T13:23:30.156Z,12.48
2022-11-22T13:26:05.721Z,12.51
2022-11-22T13:28:35.909Z,12.50
2022-11-22T13:31:08.039Z,12.46
2022-11-22T13:33:36.128Z,12.44
2022-11-22T13:36:26.046Z,12.46
2022-11-22T13:38:53.689Z,12.20
2022-11-22T13:41:26.760Z,12.47
2022-11-22T13:43:56.124Z,12.25
2022-11-22T13:46:55.202Z,12.49
2022-11-22T13:49:39.154Z,12.11
2022-11-22T13:52:34.788Z,12.51
2022-11-22T13:55:19.315Z,12.23
2022-11-22T13:57:48.064Z,12.41
2022-11-22T14:00:45.705Z,12.39
2022-11-22T14:03:36.382Z,12.36
2022-11-22T14:06:22.997Z,12.34
2022-11-22T14:08:50.461Z,12.27
2022-11-22T14:11:28.841Z,12.20
2022-11-22T14:14:00.419Z,12.17
2022-11-22T14:16:39.265Z,12.17
2022-11-22T14:19:12.003Z,11.99
2022-11-22T14:21:55.015Z,12.15
2022-11-22T14:24:32.085Z,12.12
2022-11-22T14:27:02.181Z,12.12
2022-11-22T14:29:57.025Z,11.98
2022-11-22T14:32:24.770Z,12.08
2022-11-22T14:35:29.215Z,12.07
2022-11-22T14:38:28.361Z,11.89
2022-11-22T14:41:19.309Z,12.02
2022-11-22T14:43:46.777Z,12.04
2022-11-22T14:46:45.038Z,11.96
2022-11-22T14:49:11.791Z,11.86
2022-11-22T14:51:39.272Z,11.88
2022-11-22T14:54:14.379Z,11.91
2022-11-22T14:56:42.948Z,11.89
2022-11-22T14:59:17.955Z,11.86
2022-11-22T15:02:10.222Z,11.76
2022-11-22T15:09:10.284Z,11.84
2022-11-22T15:09:10.582Z,11.74
2022-11-22T15:11:19.899Z,11.84
2022-11-22T15:14:00.656Z,11.82
2022-11-22T15:57:25.954Z,11.57
2022-11-22T15:59:54.208Z,11.63
2022-11-22T16:02:22.350Z,11.59
2022-11-22T16:06:06.844Z,11.81
2022-11-22T16:07:38.667Z,11.53
2022-11-22T16:10:09.993Z,11.63
2022-11-22T16:12:37.858Z,11.79
2022-11-22T16:15:24.151Z,11.78
2022-11-22T16:17:58.033Z,11.50
2022-11-22T16:20:32.297Z,11.78
2022-11-22T16:23:26.868Z,11.77
2022-11-22T16:25:58.505Z,11.75
2022-11-22T16:28:30.884Z,11.74
2022-11-22T16:30:58.831Z,11.73
2022-11-22T16:33:26.335Z,11.55
2022-11-22T16:35:55.011Z,11.71
2022-11-22T16:38:23.904Z,11.54
2022-11-22T16:40:51.567Z,11.59
2022-11-22T16:43:21.477Z,11.70
2022-11-22T16:45:49.027Z,11.47
2022-11-22T16:48:31.214Z,11.66
2022-11-22T16:51:00.309Z,11.65
2022-11-22T16:53:37.222Z,11.44
2022-11-22T16:56:04.743Z,11.64
2022-11-22T16:58:33.514Z,11.63
2022-11-22T17:01:01.052Z,11.62
2022-11-22T17:03:29.583Z,11.63
2022-11-22T17:05:57.054Z,11.60
2022-11-22T17:08:24.507Z,11.60
2022-11-22T17:10:52.119Z,11.60
2022-11-22T17:13:21.192Z,11.42
2022-11-22T17:15:50.138Z,11.58
2022-11-22T17:18:17.869Z,11.56
2022-11-22T17:20:45.344Z,11.40
2022-11-22T17:23:15.685Z,11.41
2022-11-22T17:25:43.121Z,11.55
2022-11-22T17:28:10.559Z,11.55
2022-11-22T17:30:38.012Z,11.34
2022-11-22T17:33:06.793Z,11.54
2022-11-22T17:35:37.097Z,11.53
2022-11-22T17:38:05.119Z,11.52
2022-11-22T17:40:32.628Z,11.51
2022-11-22T17:43:00.261Z,11.51
2022-11-22T17:45:27.794Z,11.50
2022-11-22T17:47:55.242Z,11.49
2022-11-22T17:50:24.014Z,11.49
2022-11-22T17:52:52.771Z,11.49
2022-11-22T17:55:20.239Z,11.48
2022-11-22T17:57:51.632Z,11.47
2022-11-22T18:00:26.935Z,11.47
2022-11-22T18:02:57.317Z,11.45
2022-11-22T18:05:26.093Z,11.45
2022-11-22T18:07:53.767Z,11.45
2022-11-22T18:10:21.267Z,11.43
2022-11-22T18:13:13.534Z,11.42
2022-11-22T18:15:36.176Z,11.41
2022-11-22T18:18:03.633Z,11.42
2022-11-22T18:20:32.402Z,11.41
2022-11-22T18:22:59.835Z,11.41
2022-11-22T18:25:27.284Z,11.39
2022-11-22T18:27:54.756Z,11.38
2022-11-22T18:30:22.436Z,11.37
2022-11-22T18:32:49.921Z,11.37
2022-11-22T18:35:17.591Z,11.35
2022-11-22T18:37:46.384Z,11.36
2022-11-22T18:40:14.799Z,11.34
2022-11-22T18:42:42.262Z,11.35
2022-11-22T18:45:10.994Z,11.33
2022-11-22T18:47:38.488Z,11.32
2022-11-22T18:50:12.014Z,11.31
2022-11-22T18:52:39.939Z,11.32
2022-11-22T18:55:09.413Z,11.31
2022-11-22T18:57:36.933Z,11.27
2022-11-22T19:00:04.867Z,11.30
2022-11-22T19:02:33.768Z,11.29
2022-11-22T19:05:01.902Z,11.30
2022-11-22T19:07:29.392Z,11.29
2022-11-22T19:09:57.009Z,11.28
2022-11-22T19:12:25.817Z,11.28
2022-11-22T19:14:53.265Z,11.26
2022-11-22T19:17:22.160Z,11.25
2022-11-22T19:19:53.447Z,11.24
2022-11-22T19:22:20.960Z,11.24
2022-11-22T19:24:48.404Z,11.24
2022-11-22T19:27:15.883Z,11.23
2022-11-22T19:29:44.661Z,11.18
2022-11-22T19:32:12.169Z,11.22
2022-11-22T19:34:39.612Z,11.22
2022-11-22T19:37:07.101Z,11.21
2022-11-22T19:39:34.610Z,11.22
2022-11-22T19:42:02.068Z,11.20
2022-11-22T19:44:29.521Z,11.19
2022-11-22T19:46:58.405Z,11.18
2022-11-22T19:49:26.248Z,11.18
2022-11-22T19:51:53.711Z,11.17
2022-11-22T19:54:21.206Z,11.17
2022-11-22T19:56:48.674Z,11.16
2022-11-22T19:59:17.283Z,11.17
2022-11-22T20:01:44.872Z,10.94
2022-11-22T20:04:14.167Z,11.15
2022-11-22T20:06:44.841Z,11.14
2022-11-22T20:09:15.835Z,11.14
2022-11-22T20:11:44.223Z,10.99
2022-11-22T20:14:11.679Z,11.13
2022-11-22T20:16:41.060Z,11.13
2022-11-22T20:19:09.773Z,8.37
2022-11-22T20:21:38.723Z,11.12
2022-11-22T20:24:06.551Z,11.01
2022-11-22T20:26:34.118Z,11.11
2022-11-22T20:29:02.420Z,10.94
2022-11-22T20:31:30.735Z,11.10
2022-11-22T20:33:59.121Z,10.87
2022-11-22T20:36:27.532Z,10.90
2022-11-22T20:38:56.383Z,10.83
2022-11-22T20:41:24.584Z,11.08
2022-11-22T20:43:52.558Z,10.91
2022-11-22T20:46:20.856Z,10.93
2022-11-22T20:48:48.747Z,11.07
2022-11-22T20:51:17.361Z,11.06
2022-11-22T20:53:44.839Z,11.07
2022-11-22T20:56:13.880Z,10.69
2022-11-22T20:58:41.335Z,11.07
2022-11-22T21:01:09.283Z,10.85
2022-11-22T21:03:36.791Z,11.06
2022-11-22T21:06:04.630Z,10.89
2022-11-22T21:08:32.483Z,11.03
2022-11-22T21:11:04.573Z,11.04
2022-11-22T21:13:33.742Z,10.63
2022-11-22T21:16:06.279Z,11.03
2022-11-22T21:18:42.983Z,11.02
2022-11-22T21:21:11.248Z,10.79
2022-11-22T21:23:38.776Z,11.02
2022-11-22T21:26:06.813Z,10.84
2022-11-22T21:28:35.699Z,10.83
2022-11-22T21:31:03.305Z,11.01
2022-11-22T21:33:31.013Z,11.00
2022-11-22T21:35:58.501Z,10.99
2022-11-22T21:38:31.092Z,11.00
2022-11-22T21:41:17.184Z,11.00
2022-11-22T21:43:50.556Z,10.98
2022-11-22T21:46:20.229Z,10.98
2022-11-22T21:48:49.025Z,10.97
2022-11-22T21:51:16.800Z,10.97
2022-11-22T21:53:44.256Z,10.98
2022-11-22T21:56:11.724Z,10.96
2022-11-22T21:58:39.183Z,10.96
2022-11-22T22:01:13.882Z,10.96
2022-11-22T22:03:41.807Z,10.95
2022-11-22T22:06:09.400Z,10.96
2022-11-22T22:08:36.926Z,10.95
2022-11-22T22:11:05.162Z,10.96
2022-11-22T22:13:32.937Z,10.93
2022-11-22T22:16:01.038Z,10.84
2022-11-22T22:18:32.285Z,10.93
2022-11-22T22:21:01.468Z,10.94
2022-11-22T22:23:28.965Z,9.50
2022-11-22T22:26:00.554Z,10.94
2022-11-22T22:28:28.941Z,10.93
2022-11-22T22:31:04.554Z,10.93
2022-11-22T22:33:33.399Z,10.94
2022-11-22T22:36:01.062Z,10.77
2022-11-22T22:38:29.740Z,10.93
2022-11-22T22:40:57.672Z,10.92
2022-11-22T22:43:25.184Z,10.91
2022-11-22T22:45:52.813Z,10.91
2022-11-22T22:48:20.272Z,10.92
2022-11-22T22:50:49.054Z,10.93
2022-11-22T22:53:16.522Z,10.91
2022-11-22T22:55:44.010Z,10.92
2022-11-22T22:58:12.492Z,10.91
2022-11-22T23:00:40.438Z,10.91
2022-11-22T23:03:07.980Z,10.90
2022-11-22T23:05:35.813Z,10.90
2022-11-22T23:08:05.032Z,10.88
2022-11-22T23:10:32.810Z,10.69
2022-11-22T23:13:00.304Z,10.88
2022-11-22T23:15:44.165Z,10.87
2022-11-22T23:18:15.185Z,10.82
2022-11-22T23:20:42.641Z,10.86
2022-11-22T23:23:11.450Z,10.87
2022-11-22T23:25:38.917Z,10.85
2022-11-22T23:28:06.407Z,10.85
2022-11-22T23:30:33.875Z,10.86
2022-11-22T23:33:01.339Z,10.85
2022-11-22T23:35:28.789Z,10.85
2022-11-22T23:37:56.298Z,10.62
2022-11-22T23:40:25.099Z,10.84
2022-11-22T23:42:52.752Z,10.84
2022-11-22T23:45:20.216Z,10.85
2022-11-22T23:47:50.870Z,10.84
2022-11-22T23:50:18.494Z,10.84
2022-11-22T23:52:46.074Z,10.78
2022-11-22T23:55:13.540Z,10.83
2022-11-22T23:57:42.335Z,10.83
